Latest Coastal Weather Observations for Truscott

IDW60701

Issued at 1:35 am WST Monday 24 April 2017 (issued every 10 minutes, with the page automatically refreshed every 10 minutes)

About coastal observations | Map of coastal stations | Coastal observations for WA | Marine services | Other Formats
Station Details ID: 001020 Name: TRUSCOTT Lat: -14.09 Lon: 126.39 Height: 51.0 m
Data from the previous 72 hours. | See also: Recent months at Truscott
Date/Time
WST
Temp
°C
Wind Pressure Rain since
9am
mm
Weather Cloud Vis
km
Sea
Height
m
Swell
Dir  Spd
kts
Gust
kts
hPa Trend Height
m
Period
s
Dir
24/01:30am 25.9 CALM 0 0 1010.9 - 0.0 - - 10 - - - -
24/01:00am 26.0 CALM 0 0 1011.4 - 0.0 - - 10 - - - -
24/12:30am 26.0 CALM 0 0 1011.8 - 0.0 - - 10 - - - -
24/12:00am 26.0 CALM 0 0 1011.6 - 0.0 - - 10 - - - -
 
Date/Time
WST
Temp
°C
Wind Pressure Rain since
9am
mm
Weather Cloud Vis
km
Sea
Height
m
Swell
Dir  Spd
kts
Gust
kts
hPa Trend Height
m
Period
s
Dir
23/11:30pm 26.4 CALM 0 0 1012.5 - 0.0 - - 10 - - - -
23/11:00pm 26.5 CALM 0 0 1012.6 - 0.0 - - 10 - - - -
23/10:30pm 26.2 CALM 0 0 1012.6 - 0.0 - - 10 - - - -
23/10:00pm 26.4 CALM 0 0 1012.7 - 0.0 - - 10 - - - -
23/09:30pm 26.7 CALM 0 0 1012.7 - 0.0 - - 10 - - - -
23/09:00pm 26.7 CALM 0 0 1012.4 - 0.0 - - 10 - - - -
23/08:30pm 26.9 NNE 3 4 1012.9 - 0.0 - - 10 - - - -
23/08:00pm 27.4 CALM 0 0 1012.8 - 0.0 - - 10 - - - -
23/07:30pm 28.0 NNE 3 5 1012.3 - 0.0 - - 10 - - - -
23/07:00pm 28.7 CALM 0 3 1012.1 - 0.0 - - 10 - - - -
23/06:30pm 29.0 N 4 6 1011.0 - 0.0 - - 10 - - - -
23/06:00pm 29.2 N 4 5 1010.5 - 0.0 - - 10 - - - -
23/05:30pm 29.9 NNE 5 7 1010.6 - 0.0 - - 10 - - - -
23/05:00pm 30.6 N 6 9 1010.3 - 0.0 - - 10 - - - -
23/04:30pm 31.2 N 7 10 1009.9 - 0.0 - - 10 - - - -
23/04:00pm 31.5 N 8 11 1009.6 - 0.0 - - 10 - - - -
23/03:30pm 32.0 N 7 10 1009.4 - 0.0 - - 10 - - - -
23/03:00pm 32.1 N 8 12 1008.6 - 0.0 - - 10 - - - -
23/02:30pm 31.9 N 8 12 1009.0 - 0.0 - Partly cloudy 10 - - - -
23/02:00pm 32.4 N 7 12 1008.9 - 0.0 - Partly cloudy 10 - - - -
23/01:30pm 32.7 N 6 9 1009.3 - 0.0 - - 10 - - - -
23/01:00pm 33.1 N 4 6 1009.6 - 0.0 - - 10 - - - -
23/12:30pm 33.2 NE 3 6 1010.0 - 0.0 - Partly cloudy 10 - - - -
23/12:00pm 33.1 W 4 6 1010.0 - 0.0 - Partly cloudy 10 - - - -
23/11:30am 32.6 NW 5 7 1010.8 - 0.0 - - 10 - - - -
23/11:00am 32.4 SSW 3 6 1011.3 - 0.0 - Partly cloudy 10 - - - -
23/10:30am 31.9 W 5 7 1011.8 - 0.0 - Partly cloudy 10 - - - -
23/10:00am 31.9 WNW 6 9 1012.2 - 0.0 - - 10 - - - -
23/09:30am 31.5 WSW 5 9 1012.6 - 0.0 - - 10 - - - -
23/09:00am 31.5 SW 7 10 1012.3 - 0.0 - - 10 - - - -
23/08:30am 30.8 SW 6 8 1012.6 - 0.0 - - 10 - - - -
23/08:00am 30.0 SW 6 9 1012.3 - 0.0 - - 10 - - - -
23/07:30am 29.3 SW 5 7 1012.1 - 0.0 - - 10 - - - -
23/07:00am 28.5 SSW 4 6 1011.8 - 0.0 - - 10 - - - -
23/06:30am 27.7 SSW 5 6 1011.5 - 0.0 - - 10 - - - -
23/06:00am 26.8 SSW 5 7 1010.5 - 0.0 - - 10 - - - -
23/05:30am 26.7 SW 4 6 1010.4 - 0.0 - - 10 - - - -
23/05:00am 26.7 SSW 4 5 1010.1 - 0.0 - - 10 - - - -
23/04:30am 26.1 SSW 4 5 1010.0 - 0.0 - - 10 - - - -
23/04:00am 25.1 CALM 0 0 1010.2 - 0.0 - - 10 - - - -
23/03:30am 25.4 S 3 4 1010.3 - 0.0 - - 10 - - - -
23/03:00am 25.5 S 1 3 1010.1 - 0.0 - - 10 - - - -
23/02:30am 25.8 SW 3 4 1010.5 - 0.0 - - 10 - - - -
23/02:00am 26.0 CALM 0 0 1010.5 - 0.0 - - 10 - - - -
23/01:30am 26.0 CALM 0 3 1010.7 - 0.0 - - 10 - - - -
23/01:00am 26.2 CALM 0 0 1011.0 - 0.0 - - 10 - - - -
23/12:30am 26.3 CALM 0 0 1011.3 - 0.0 - - 10 - - - -
23/12:00am 26.5 CALM 0 0 1011.0 - 0.0 - - 10 - - - -
 
Date/Time
WST
Temp
°C
Wind Pressure Rain since
9am
mm
Weather Cloud Vis
km
Sea
Height
m
Swell
Dir  Spd
kts
Gust
kts
hPa Trend Height
m
Period
s
Dir
22/11:30pm 26.7 CALM 0 0 1011.9 - 0.0 - - 10 - - - -
22/11:00pm 26.8 CALM 0 0 1011.9 - 0.0 - - 10 - - - -
22/10:30pm 26.9 CALM 0 0 1012.1 - 0.0 - - 10 - - - -
22/10:00pm 27.2 W 1 3 1012.2 - 0.0 - - 10 - - - -
22/09:30pm 27.0 CALM 0 0 1012.3 - 0.0 - - 10 - - - -
22/09:00pm 27.1 CALM 0 0 1012.0 - 0.0 - - 10 - - - -
22/08:30pm 27.3 CALM 0 0 1012.3 - 0.0 - - 10 - - - -
22/08:00pm 27.6 NW 2 3 1012.0 - 0.0 - - 10 - - - -
22/07:30pm 28.6 WNW 3 4 1011.7 - 0.0 - - 10 - - - -
22/07:00pm 28.6 NW 3 4 1011.3 - 0.0 - - 10 - - - -
22/06:30pm 28.9 WNW 3 4 1010.8 - 0.0 - - 10 - - - -
22/06:00pm 28.7 NNW 3 4 1009.9 - 0.0 - - 10 - - - -
22/05:30pm 29.6 NNW 3 5 1009.9 - 0.0 - - 10 - - - -
22/05:00pm 30.4 N 4 5 1009.7 - 0.0 - - 10 - - - -
22/04:30pm 30.9 N 6 8 1009.3 - 0.0 - - 10 - - - -
22/04:00pm 31.6 N 6 8 1008.9 - 0.0 - - 10 - - - -
22/03:30pm 32.0 NNW 7 9 1008.8 - 0.0 - - 10 - - - -
22/03:00pm 32.2 NNW 7 11 1008.3 - 0.0 - - 10 - - - -
22/02:30pm 32.5 NNW 8 11 1008.8 - 0.0 - - 10 - - - -
22/02:00pm 32.6 NNW 7 11 1009.0 - 0.0 - Partly cloudy 10 - - - -
22/01:30pm 33.1 NNW 7 11 1009.3 - 0.0 - - 10 - - - -
22/01:00pm 33.8 N 5 8 1009.7 - 0.0 - Partly cloudy 10 - - - -
22/12:30pm 33.9 NE 7 11 1010.1 - 0.0 - Partly cloudy 10 - - - -
22/12:00pm 33.5 E 7 11 1010.1 - 0.0 - - 10 - - - -
22/11:30am 33.9 E 6 9 1010.8 - 0.0 - - 10 - - - -
22/11:00am 33.4 ESE 5 7 1011.4 - 0.0 - - 10 - - - -
22/10:30am 33.0 SE 3 6 1011.9 - 0.0 - - 10 - - - -
22/10:00am 32.4 SE 5 7 1012.1 - 0.0 - - 10 - - - -
22/09:30am 32.0 SSE 5 7 1012.3 - 0.0 - - 10 - - - -
22/09:00am 31.4 SSW 6 9 1012.0 - 0.0 - - 10 - - - -
22/08:30am 30.5 SSW 7 10 1012.5 - 0.0 - - 10 - - - -
22/08:00am 29.7 SW 7 9 1012.4 - 0.0 - - 10 - - - -
22/07:30am 29.1 SSW 6 7 1012.2 - 0.0 - - 10 - - - -
22/07:00am 28.0 SSW 5 6 1012.1 - 0.0 - - 10 - - - -
22/06:30am 27.0 S 4 6 1011.9 - 0.0 - - 10 - - - -
22/06:00am 25.3 CALM 0 0 1011.3 - 0.0 - - 10 - - - -
22/05:30am 24.9 CALM 0 0 1011.4 - 0.0 - - 10 - - - -
22/05:00am 25.3 CALM 0 0 1011.1 - 0.0 - - 10 - - - -
22/04:30am 25.3 CALM 0 0 1010.8 - 0.0 - - 10 - - - -
22/04:00am 25.4 CALM 0 0 1010.7 - 0.0 - - 10 - - - -
22/03:30am 25.2 CALM 0 0 1010.7 - 0.0 - - 10 - - - -
22/03:00am 25.5 CALM 0 0 1010.3 - 0.0 - - 10 - - - -
22/02:30am 25.6 CALM 0 0 1010.7 - 0.0 - - 10 - - - -
22/02:00am 25.5 CALM 0 0 1010.9 - 0.0 - - 10 - - - -
22/01:30am 25.7 CALM 0 0 1011.0 - 0.0 - - 10 - - - -
22/01:00am 25.7 CALM 0 0 1011.3 - 0.0 - - 10 - - - -
22/12:30am 25.8 CALM 0 0 1011.7 - 0.0 - - 10 - - - -
22/12:00am 25.8 CALM 0 0 1011.6 - 0.0 - - 10 - - - -
 
Date/Time
WST
Temp
°C
Wind Pressure Rain since
9am
mm
Weather Cloud Vis
km
Sea
Height
m
Swell
Dir  Spd
kts
Gust
kts
hPa Trend Height
m
Period
s
Dir
21/11:30pm 25.8 CALM 0 0 1012.2 - 0.0 - - 10 - - - -
21/11:00pm 26.0 CALM 0 0 1012.3 - 0.0 - - 10 - - - -
21/10:30pm 26.2 CALM 0 0 1012.4 - 0.0 - - 10 - - - -
21/10:00pm 26.0 CALM 0 0 1012.4 - 0.0 - - 10 - - - -
21/09:30pm 26.3 CALM 0 0 1012.7 - 0.0 - - 10 - - - -
21/09:00pm 26.8 CALM 0 0 1012.4 - 0.0 - - 10 - - - -
21/08:30pm 27.0 CALM 0 0 1012.8 - 0.0 - - 10 - - - -
21/08:00pm 27.4 CALM 0 0 1012.5 - 0.0 - - 10 - - - -
21/07:30pm 28.0 NNW 2 3 1012.2 - 0.0 - - 10 - - - -
21/07:00pm 28.2 N 3 4 1011.8 - 0.0 - - 10 - - - -
21/06:30pm 28.4 CALM 0 0 1011.5 - 0.0 - - 10 - - - -
21/06:00pm 28.9 NNE 3 5 1010.7 - 0.0 - - 10 - - - -
21/05:30pm 29.4 N 4 6 1010.8 - 0.0 - - 10 - - - -
21/05:00pm 30.3 N 5 7 1010.4 - 0.0 - - 10 - - - -
21/04:30pm 30.9 N 5 7 1010.0 - 0.0 - - 10 - - - -
21/04:00pm 31.5 NW 6 9 1009.9 - 0.0 - - 10 - - - -
21/03:30pm 31.4 NNW 8 11 1009.5 - 0.0 - - 10 - - - -
21/03:00pm 31.8 NW 8 13 1009.0 - 0.0 - - 10 - - - -
21/02:30pm 32.2 NNW 7 12 1009.4 - 0.0 - - 10 - - - -
21/02:00pm 32.3 N 9 12 1009.5 - 0.0 - - 10 - - - -
21/01:30pm 32.4 NNW 9 13 1009.6 - 0.0 - - 10 - - - -
21/01:00pm 32.7 NNW 8 11 1010.1 - 0.0 - - 10 - - - -
21/12:30pm 32.1 N 8 13 1010.4 - 0.0 - - 10 - - - -
21/12:00pm 32.7 N 7 9 1010.5 - 0.0 - Partly cloudy 10 - - - -
21/11:30am 32.7 WNW 5 7 1011.4 - 0.0 - Partly cloudy 10 - - - -
21/11:00am 33.3 E 4 6 1011.8 - 0.0 - - 10 - - - -
21/10:30am 32.9 E 6 11 1012.3 - 0.0 - - 10 - - - -
21/10:00am 32.4 ESE 4 8 1012.7 - 0.0 - - 10 - - - -
21/09:30am 32.3 S 5 7 1012.8 - 0.0 - - 10 - - - -
21/09:00am 31.3 S 3 5 1012.5 - 0.0 - - 10 - - - -
21/08:30am 30.9 S 6 8 1012.9 - 0.0 - - 10 - - - -
21/08:00am 30.2 SSW 6 9 1012.9 - 0.0 - - 10 - - - -
21/07:30am 29.0 S 6 9 1012.9 - 0.0 - - 10 - - - -
21/07:00am 28.1 SSW 6 9 1012.7 - 0.0 - - 10 - - - -
21/06:30am 27.1 S 6 8 1012.5 - 0.0 - - 10 - - - -
21/06:00am 26.4 S 5 7 1011.9 - 0.0 - - 10 - - - -
21/05:30am 26.3 SSW 6 8 1011.9 - 0.0 - - 10 - - - -
21/05:00am 26.2 SSW 5 7 1011.6 - 0.0 - - 10 - - - -
21/04:00am 26.1 SSW 4 5 1011.3 - 0.0 - - 10 - - - -
21/03:30am 26.2 SSW 5 6 1011.4 - 0.0 - - 10 - - - -
21/03:00am 26.3 SSW 4 6 1011.0 - 0.0 - - 10 - - - -
21/02:30am 26.2 SSW 5 7 1011.3 - 0.0 - - 10 - - - -
21/02:00am 26.2 SSW 5 7 1011.4 - 0.0 - - 10 - - - -

Other Formats:

Comma delimited format used in spreadsheet applications
http://www.bom.gov.au/fwo/IDW60701/IDW60701.95101.axf

JavaScript Object Notation format (JSON) in row-major order
http://www.bom.gov.au/fwo/IDW60701/IDW60701.95101.json